Kingsclere, United Kingdom
Current Conditions -  °F | °C
As of 11:50 PM on Wednesday 22 Oct 2014 (Local Time) from EGVO Reporting Station
Overcast Overcast  
Wind Chill: 52°   Ceiling: 2700
Heat Index: 52°   Visibility: 6mi
Dew Point: 45°   Wind: 12mph
Humidity: 76%   Direction: 220°SW
Pressure: 30.21"   Gusts: NA
Location:  51.32°N, 1.24°W
Report Text: EGVO 222250Z 22010KT 9999 OVC027 11/07 Q1023 BLU TEMPO SCT020 WHT
Loading
Personal Weather Stations






























Interactive Weather Map
Tropical Storm Tracking
New forecast layout! Learn more

10-Day Weather Forecast

Advertisements
Track Severe Weather on mobile